Terminal Aerodrome Forecast
Issued by NWS Pueblo, CO

Home | Current Version | Previous Version | Text Only | Print | Product List | Glossary On
Versions: 1 2 3 4 5 6 7 8 9 10 11 12 13 14 15 16 17
000
FTUS45 KPUB 210059 AAC
TAFPUB
TAF AMD
KPUB 210059Z 2101/2124 09015G25KT P6SM VCSH BKN020
     FM210400 10015G22KT 3SM -RA BR OVC015
     FM210600 02012KT 5SM SHRA BR OVC012
     FM211100 35010KT P6SM BKN030
     FM211500 35012G24KT P6SM BKN080
     FM212000 02012KT P6SM SCT060 BKN100=

USA.gov is the U.S. government's official web portal to all federal, state and local government web resources and services.